sensor_id;sensor_type;location;lat;lon;timestamp;P1;durP1;ratioP1;P2;durP2;ratioP2
46767;SDS011;69007;48.978;18.066;2023-10-31T00:01:04;7.03;;;2.97;;
46767;SDS011;69007;48.978;18.066;2023-10-31T00:03:30;5.72;;;2.08;;
46767;SDS011;69007;48.978;18.066;2023-10-31T00:05:56;5.07;;;2.13;;
46767;SDS011;69007;48.978;18.066;2023-10-31T00:08:21;5.13;;;2.30;;
46767;SDS011;69007;48.978;18.066;2023-10-31T00:10:47;15.40;;;2.05;;
46767;SDS011;69007;48.978;18.066;2023-10-31T00:13:12;5.50;;;2.15;;
46767;SDS011;69007;48.978;18.066;2023-10-31T00:15:37;4.30;;;2.00;;
46767;SDS011;69007;48.978;18.066;2023-10-31T00:18:03;6.65;;;2.08;;
46767;SDS011;69007;48.978;18.066;2023-10-31T00:20:28;9.18;;;2.30;;
46767;SDS011;69007;48.978;18.066;2023-10-31T00:22:54;4.22;;;2.10;;
46767;SDS011;69007;48.978;18.066;2023-10-31T00:25:19;11.02;;;2.22;;
46767;SDS011;69007;48.978;18.066;2023-10-31T00:27:45;8.45;;;2.85;;
46767;SDS011;69007;48.978;18.066;2023-10-31T00:30:10;5.82;;;2.53;;
46767;SDS011;69007;48.978;18.066;2023-10-31T00:32:36;3.38;;;1.90;;
46767;SDS011;69007;48.978;18.066;2023-10-31T00:35:01;2.58;;;1.83;;
46767;SDS011;69007;48.978;18.066;2023-10-31T00:37:26;3.42;;;1.92;;
46767;SDS011;69007;48.978;18.066;2023-10-31T00:39:52;4.13;;;2.05;;
46767;SDS011;69007;48.978;18.066;2023-10-31T00:42:17;3.70;;;2.25;;
46767;SDS011;69007;48.978;18.066;2023-10-31T00:44:43;3.58;;;2.30;;
46767;SDS011;69007;48.978;18.066;2023-10-31T00:47:08;4.97;;;2.20;;
46767;SDS011;69007;48.978;18.066;2023-10-31T00:49:33;3.67;;;2.10;;
46767;SDS011;69007;48.978;18.066;2023-10-31T00:51:59;4.20;;;2.13;;
46767;SDS011;69007;48.978;18.066;2023-10-31T00:54:24;4.22;;;2.58;;
46767;SDS011;69007;48.978;18.066;2023-10-31T00:56:49;6.85;;;2.22;;
46767;SDS011;69007;48.978;18.066;2023-10-31T00:59:15;9.70;;;2.38;;
46767;SDS011;69007;48.978;18.066;2023-10-31T01:01:40;3.45;;;2.20;;
46767;SDS011;69007;48.978;18.066;2023-10-31T01:04:08;10.02;;;2.50;;
46767;SDS011;69007;48.978;18.066;2023-10-31T01:06:33;8.73;;;2.60;;
46767;SDS011;69007;48.978;18.066;2023-10-31T01:08:58;3.45;;;2.53;;
46767;SDS011;69007;48.978;18.066;2023-10-31T01:11:24;5.00;;;2.35;;
46767;SDS011;69007;48.978;18.066;2023-10-31T01:13:49;6.35;;;2.47;;
46767;SDS011;69007;48.978;18.066;2023-10-31T01:16:14;4.00;;;2.63;;
46767;SDS011;69007;48.978;18.066;2023-10-31T01:18:40;4.32;;;2.30;;
46767;SDS011;69007;48.978;18.066;2023-10-31T01:21:05;7.25;;;2.65;;
46767;SDS011;69007;48.978;18.066;2023-10-31T01:23:31;7.65;;;2.58;;
46767;SDS011;69007;48.978;18.066;2023-10-31T01:25:56;6.10;;;2.58;;
46767;SDS011;69007;48.978;18.066;2023-10-31T01:28:21;4.95;;;2.58;;
46767;SDS011;69007;48.978;18.066;2023-10-31T01:30:46;3.97;;;2.47;;
46767;SDS011;69007;48.978;18.066;2023-10-31T01:33:12;3.35;;;2.80;;
46767;SDS011;69007;48.978;18.066;2023-10-31T01:35:37;5.68;;;3.05;;
46767;SDS011;69007;48.978;18.066;2023-10-31T01:38:03;8.02;;;2.92;;
46767;SDS011;69007;48.978;18.066;2023-10-31T01:40:28;7.70;;;2.70;;
46767;SDS011;69007;48.978;18.066;2023-10-31T01:42:54;7.72;;;2.45;;
46767;SDS011;69007;48.978;18.066;2023-10-31T01:45:20;6.68;;;2.70;;
46767;SDS011;69007;48.978;18.066;2023-10-31T01:47:45;9.10;;;3.05;;
46767;SDS011;69007;48.978;18.066;2023-10-31T01:50:14;9.05;;;3.30;;
46767;SDS011;69007;48.978;18.066;2023-10-31T01:52:39;5.60;;;2.40;;
46767;SDS011;69007;48.978;18.066;2023-10-31T01:55:05;6.25;;;2.20;;
46767;SDS011;69007;48.978;18.066;2023-10-31T01:57:31;12.20;;;3.97;;
46767;SDS011;69007;48.978;18.066;2023-10-31T01:59:57;6.88;;;2.53;;
46767;SDS011;69007;48.978;18.066;2023-10-31T02:02:23;4.28;;;2.55;;
46767;SDS011;69007;48.978;18.066;2023-10-31T02:04:50;11.55;;;2.38;;
46767;SDS011;69007;48.978;18.066;2023-10-31T02:07:16;10.45;;;3.33;;
46767;SDS011;69007;48.978;18.066;2023-10-31T02:09:42;7.13;;;2.60;;
46767;SDS011;69007;48.978;18.066;2023-10-31T02:12:07;8.65;;;2.92;;
46767;SDS011;69007;48.978;18.066;2023-10-31T02:14:32;5.85;;;2.80;;
46767;SDS011;69007;48.978;18.066;2023-10-31T02:16:58;7.25;;;2.55;;
46767;SDS011;69007;48.978;18.066;2023-10-31T02:19:23;3.53;;;2.30;;
46767;SDS011;69007;48.978;18.066;2023-10-31T02:21:49;4.70;;;3.05;;
46767;SDS011;69007;48.978;18.066;2023-10-31T02:24:14;6.47;;;2.75;;
46767;SDS011;69007;48.978;18.066;2023-10-31T02:26:39;3.72;;;2.50;;
46767;SDS011;69007;48.978;18.066;2023-10-31T02:29:05;4.65;;;2.88;;
46767;SDS011;69007;48.978;18.066;2023-10-31T02:31:31;5.40;;;2.72;;
46767;SDS011;69007;48.978;18.066;2023-10-31T02:33:57;5.53;;;2.28;;
46767;SDS011;69007;48.978;18.066;2023-10-31T02:36:22;8.27;;;2.60;;
46767;SDS011;69007;48.978;18.066;2023-10-31T02:38:48;6.70;;;3.22;;
46767;SDS011;69007;48.978;18.066;2023-10-31T02:41:14;4.97;;;2.58;;
46767;SDS011;69007;48.978;18.066;2023-10-31T02:43:40;5.47;;;2.60;;
46767;SDS011;69007;48.978;18.066;2023-10-31T02:46:06;7.50;;;2.70;;
46767;SDS011;69007;48.978;18.066;2023-10-31T02:48:31;6.32;;;2.85;;
46767;SDS011;69007;48.978;18.066;2023-10-31T02:51:04;7.75;;;2.88;;
46767;SDS011;69007;48.978;18.066;2023-10-31T02:53:30;6.30;;;2.90;;
46767;SDS011;69007;48.978;18.066;2023-10-31T02:55:56;5.97;;;2.42;;
46767;SDS011;69007;48.978;18.066;2023-10-31T02:58:21;18.23;;;5.05;;
46767;SDS011;69007;48.978;18.066;2023-10-31T03:00:46;4.40;;;2.65;;
46767;SDS011;69007;48.978;18.066;2023-10-31T03:03:12;12.48;;;2.90;;
46767;SDS011;69007;48.978;18.066;2023-10-31T03:05:37;5.68;;;3.20;;
46767;SDS011;69007;48.978;18.066;2023-10-31T03:08:03;4.65;;;2.90;;
46767;SDS011;69007;48.978;18.066;2023-10-31T03:10:28;5.78;;;2.60;;
46767;SDS011;69007;48.978;18.066;2023-10-31T03:12:54;6.68;;;3.03;;
46767;SDS011;69007;48.978;18.066;2023-10-31T03:15:19;4.88;;;2.65;;
46767;SDS011;69007;48.978;18.066;2023-10-31T03:17:44;4.47;;;2.70;;
46767;SDS011;69007;48.978;18.066;2023-10-31T03:20:10;6.38;;;2.72;;
46767;SDS011;69007;48.978;18.066;2023-10-31T03:22:36;5.72;;;2.50;;
46767;SDS011;69007;48.978;18.066;2023-10-31T03:25:01;3.63;;;2.42;;
46767;SDS011;69007;48.978;18.066;2023-10-31T03:27:26;6.55;;;2.50;;
46767;SDS011;69007;48.978;18.066;2023-10-31T03:29:52;3.80;;;2.30;;
46767;SDS011;69007;48.978;18.066;2023-10-31T03:32:17;3.92;;;2.60;;
46767;SDS011;69007;48.978;18.066;2023-10-31T03:34:42;4.00;;;2.60;;
46767;SDS011;69007;48.978;18.066;2023-10-31T03:37:08;4.60;;;2.78;;
46767;SDS011;69007;48.978;18.066;2023-10-31T03:39:33;6.18;;;2.83;;
46767;SDS011;69007;48.978;18.066;2023-10-31T03:41:59;8.02;;;3.42;;
46767;SDS011;69007;48.978;18.066;2023-10-31T03:44:25;5.25;;;2.85;;
46767;SDS011;69007;48.978;18.066;2023-10-31T03:46:50;5.00;;;2.65;;
46767;SDS011;69007;48.978;18.066;2023-10-31T03:49:16;4.05;;;2.50;;
46767;SDS011;69007;48.978;18.066;2023-10-31T03:51:41;7.35;;;2.88;;
46767;SDS011;69007;48.978;18.066;2023-10-31T03:54:07;5.97;;;3.40;;
46767;SDS011;69007;48.978;18.066;2023-10-31T03:56:42;6.88;;;2.88;;
46767;SDS011;69007;48.978;18.066;2023-10-31T03:59:08;6.03;;;2.85;;
46767;SDS011;69007;48.978;18.066;2023-10-31T04:01:33;3.75;;;2.58;;
46767;SDS011;69007;48.978;18.066;2023-10-31T04:03:59;7.03;;;2.55;;
46767;SDS011;69007;48.978;18.066;2023-10-31T04:06:24;8.00;;;3.13;;
46767;SDS011;69007;48.978;18.066;2023-10-31T04:08:49;7.47;;;2.97;;
46767;SDS011;69007;48.978;18.066;2023-10-31T04:11:15;7.03;;;3.05;;
46767;SDS011;69007;48.978;18.066;2023-10-31T04:13:40;8.43;;;2.78;;
46767;SDS011;69007;48.978;18.066;2023-10-31T04:16:05;6.32;;;3.35;;
46767;SDS011;69007;48.978;18.066;2023-10-31T04:18:31;5.13;;;2.80;;
46767;SDS011;69007;48.978;18.066;2023-10-31T04:20:57;7.63;;;3.13;;
46767;SDS011;69007;48.978;18.066;2023-10-31T04:23:22;5.75;;;2.50;;
46767;SDS011;69007;48.978;18.066;2023-10-31T04:25:47;9.45;;;3.33;;
46767;SDS011;69007;48.978;18.066;2023-10-31T04:28:12;4.60;;;2.55;;
46767;SDS011;69007;48.978;18.066;2023-10-31T04:30:39;6.55;;;3.00;;
46767;SDS011;69007;48.978;18.066;2023-10-31T04:33:05;3.75;;;2.47;;
46767;SDS011;69007;48.978;18.066;2023-10-31T04:35:30;3.88;;;2.58;;
46767;SDS011;69007;48.978;18.066;2023-10-31T04:37:55;4.88;;;2.55;;
46767;SDS011;69007;48.978;18.066;2023-10-31T04:40:21;7.30;;;3.08;;
46767;SDS011;69007;48.978;18.066;2023-10-31T04:42:47;3.58;;;2.55;;
46767;SDS011;69007;48.978;18.066;2023-10-31T04:45:12;5.40;;;2.90;;
46767;SDS011;69007;48.978;18.066;2023-10-31T04:47:38;5.85;;;3.13;;
46767;SDS011;69007;48.978;18.066;2023-10-31T04:50:03;8.93;;;4.57;;
46767;SDS011;69007;48.978;18.066;2023-10-31T04:52:29;6.43;;;3.15;;
46767;SDS011;69007;48.978;18.066;2023-10-31T04:54:54;4.43;;;2.40;;
46767;SDS011;69007;48.978;18.066;2023-10-31T04:57:19;3.90;;;2.45;;
46767;SDS011;69007;48.978;18.066;2023-10-31T04:59:45;7.43;;;3.42;;
46767;SDS011;69007;48.978;18.066;2023-10-31T05:02:10;10.45;;;2.95;;
46767;SDS011;69007;48.978;18.066;2023-10-31T05:04:38;6.45;;;2.72;;
46767;SDS011;69007;48.978;18.066;2023-10-31T05:07:04;5.80;;;2.72;;
46767;SDS011;69007;48.978;18.066;2023-10-31T05:09:30;4.88;;;2.63;;
46767;SDS011;69007;48.978;18.066;2023-10-31T05:11:55;4.80;;;3.00;;
46767;SDS011;69007;48.978;18.066;2023-10-31T05:14:21;6.53;;;3.35;;
46767;SDS011;69007;48.978;18.066;2023-10-31T05:16:46;6.95;;;3.20;;
46767;SDS011;69007;48.978;18.066;2023-10-31T05:19:11;6.07;;;3.20;;
46767;SDS011;69007;48.978;18.066;2023-10-31T05:21:37;7.88;;;2.80;;
46767;SDS011;69007;48.978;18.066;2023-10-31T05:24:03;5.50;;;2.92;;
46767;SDS011;69007;48.978;18.066;2023-10-31T05:26:29;7.40;;;3.33;;
46767;SDS011;69007;48.978;18.066;2023-10-31T05:28:54;6.35;;;2.72;;
46767;SDS011;69007;48.978;18.066;2023-10-31T05:31:21;4.75;;;2.70;;
46767;SDS011;69007;48.978;18.066;2023-10-31T05:33:47;5.97;;;2.90;;
46767;SDS011;69007;48.978;18.066;2023-10-31T05:36:19;8.85;;;2.88;;
46767;SDS011;69007;48.978;18.066;2023-10-31T05:38:48;6.13;;;2.90;;
46767;SDS011;69007;48.978;18.066;2023-10-31T05:41:15;3.55;;;2.88;;
46767;SDS011;69007;48.978;18.066;2023-10-31T05:43:40;6.53;;;2.70;;
46767;SDS011;69007;48.978;18.066;2023-10-31T05:46:06;7.30;;;3.50;;
46767;SDS011;69007;48.978;18.066;2023-10-31T05:48:35;10.60;;;3.40;;
46767;SDS011;69007;48.978;18.066;2023-10-31T05:51:02;6.50;;;3.08;;
46767;SDS011;69007;48.978;18.066;2023-10-31T05:53:28;4.57;;;3.10;;
46767;SDS011;69007;48.978;18.066;2023-10-31T05:55:53;5.70;;;2.90;;
46767;SDS011;69007;48.978;18.066;2023-10-31T05:58:18;5.22;;;2.85;;
46767;SDS011;69007;48.978;18.066;2023-10-31T06:00:44;5.10;;;3.15;;
46767;SDS011;69007;48.978;18.066;2023-10-31T06:03:09;5.25;;;2.83;;
46767;SDS011;69007;48.978;18.066;2023-10-31T06:05:34;5.15;;;3.10;;
46767;SDS011;69007;48.978;18.066;2023-10-31T06:08:00;6.60;;;2.92;;
46767;SDS011;69007;48.978;18.066;2023-10-31T06:10:25;6.25;;;3.38;;
46767;SDS011;69007;48.978;18.066;2023-10-31T06:12:51;3.55;;;2.70;;
46767;SDS011;69007;48.978;18.066;2023-10-31T06:15:16;5.32;;;2.90;;
46767;SDS011;69007;48.978;18.066;2023-10-31T06:17:41;7.90;;;3.35;;
46767;SDS011;69007;48.978;18.066;2023-10-31T06:20:07;8.52;;;3.38;;
46767;SDS011;69007;48.978;18.066;2023-10-31T06:22:33;5.68;;;2.72;;
46767;SDS011;69007;48.978;18.066;2023-10-31T06:24:59;6.60;;;3.22;;
46767;SDS011;69007;48.978;18.066;2023-10-31T06:27:24;4.95;;;3.40;;
46767;SDS011;69007;48.978;18.066;2023-10-31T06:29:50;5.90;;;3.10;;
46767;SDS011;69007;48.978;18.066;2023-10-31T06:32:15;5.95;;;2.97;;
46767;SDS011;69007;48.978;18.066;2023-10-31T06:34:40;7.68;;;3.05;;
46767;SDS011;69007;48.978;18.066;2023-10-31T06:37:06;10.27;;;3.33;;
46767;SDS011;69007;48.978;18.066;2023-10-31T06:39:31;6.32;;;3.67;;
46767;SDS011;69007;48.978;18.066;2023-10-31T06:41:57;6.70;;;3.65;;
46767;SDS011;69007;48.978;18.066;2023-10-31T06:44:23;4.25;;;2.92;;
46767;SDS011;69007;48.978;18.066;2023-10-31T06:46:48;9.82;;;3.03;;
46767;SDS011;69007;48.978;18.066;2023-10-31T06:49:14;7.65;;;3.10;;
46767;SDS011;69007;48.978;18.066;2023-10-31T06:51:40;5.30;;;3.15;;
46767;SDS011;69007;48.978;18.066;2023-10-31T06:54:05;5.43;;;3.13;;
46767;SDS011;69007;48.978;18.066;2023-10-31T06:56:31;12.50;;;3.30;;
46767;SDS011;69007;48.978;18.066;2023-10-31T06:58:56;6.47;;;3.58;;
46767;SDS011;69007;48.978;18.066;2023-10-31T07:01:21;9.15;;;3.80;;
46767;SDS011;69007;48.978;18.066;2023-10-31T07:03:47;4.82;;;3.45;;
46767;SDS011;69007;48.978;18.066;2023-10-31T07:06:12;4.78;;;2.92;;
46767;SDS011;69007;48.978;18.066;2023-10-31T07:08:38;7.10;;;3.50;;
46767;SDS011;69007;48.978;18.066;2023-10-31T07:11:03;8.23;;;3.22;;
46767;SDS011;69007;48.978;18.066;2023-10-31T07:13:30;6.20;;;3.10;;
46767;SDS011;69007;48.978;18.066;2023-10-31T07:15:55;14.55;;;3.53;;
46767;SDS011;69007;48.978;18.066;2023-10-31T07:18:21;5.10;;;2.95;;
46767;SDS011;69007;48.978;18.066;2023-10-31T07:20:46;5.97;;;2.90;;
46767;SDS011;69007;48.978;18.066;2023-10-31T07:23:11;6.80;;;3.17;;
46767;SDS011;69007;48.978;18.066;2023-10-31T07:25:37;6.97;;;3.40;;
46767;SDS011;69007;48.978;18.066;2023-10-31T07:28:02;5.72;;;3.30;;
46767;SDS011;69007;48.978;18.066;2023-10-31T07:30:27;7.00;;;3.22;;
46767;SDS011;69007;48.978;18.066;2023-10-31T07:32:53;10.55;;;3.95;;
46767;SDS011;69007;48.978;18.066;2023-10-31T07:35:18;9.43;;;3.78;;
46767;SDS011;69007;48.978;18.066;2023-10-31T07:37:44;6.82;;;3.47;;
46767;SDS011;69007;48.978;18.066;2023-10-31T07:40:10;6.35;;;3.00;;
46767;SDS011;69007;48.978;18.066;2023-10-31T07:42:36;5.38;;;2.80;;
46767;SDS011;69007;48.978;18.066;2023-10-31T07:45:01;6.78;;;3.55;;
46767;SDS011;69007;48.978;18.066;2023-10-31T07:47:27;4.47;;;3.13;;
46767;SDS011;69007;48.978;18.066;2023-10-31T07:49:52;4.60;;;3.13;;
46767;SDS011;69007;48.978;18.066;2023-10-31T07:52:18;8.68;;;4.05;;
46767;SDS011;69007;48.978;18.066;2023-10-31T07:54:44;5.63;;;3.53;;
46767;SDS011;69007;48.978;18.066;2023-10-31T07:57:09;4.05;;;2.78;;
46767;SDS011;69007;48.978;18.066;2023-10-31T07:59:35;9.45;;;3.10;;
46767;SDS011;69007;48.978;18.066;2023-10-31T08:02:01;5.60;;;3.38;;
46767;SDS011;69007;48.978;18.066;2023-10-31T08:04:27;6.45;;;4.03;;
46767;SDS011;69007;48.978;18.066;2023-10-31T08:06:53;6.18;;;3.58;;
46767;SDS011;69007;48.978;18.066;2023-10-31T08:09:19;6.13;;;3.05;;
46767;SDS011;69007;48.978;18.066;2023-10-31T08:11:44;7.32;;;3.58;;
46767;SDS011;69007;48.978;18.066;2023-10-31T08:14:09;5.80;;;4.45;;
46767;SDS011;69007;48.978;18.066;2023-10-31T08:16:35;4.40;;;3.80;;
46767;SDS011;69007;48.978;18.066;2023-10-31T08:19:00;4.82;;;3.70;;
46767;SDS011;69007;48.978;18.066;2023-10-31T08:21:27;5.30;;;4.00;;
46767;SDS011;69007;48.978;18.066;2023-10-31T08:23:58;7.80;;;3.70;;
46767;SDS011;69007;48.978;18.066;2023-10-31T08:26:24;6.28;;;3.75;;
46767;SDS011;69007;48.978;18.066;2023-10-31T08:28:49;11.20;;;3.80;;
46767;SDS011;69007;48.978;18.066;2023-10-31T08:31:16;12.35;;;5.30;;
46767;SDS011;69007;48.978;18.066;2023-10-31T08:33:41;4.45;;;2.90;;
46767;SDS011;69007;48.978;18.066;2023-10-31T08:36:07;8.95;;;4.18;;
46767;SDS011;69007;48.978;18.066;2023-10-31T08:38:33;10.10;;;4.40;;
46767;SDS011;69007;48.978;18.066;2023-10-31T08:40:58;8.45;;;3.60;;
46767;SDS011;69007;48.978;18.066;2023-10-31T08:43:23;6.72;;;3.90;;
46767;SDS011;69007;48.978;18.066;2023-10-31T08:45:49;5.72;;;3.65;;
46767;SDS011;69007;48.978;18.066;2023-10-31T08:48:14;4.30;;;3.50;;
46767;SDS011;69007;48.978;18.066;2023-10-31T08:50:40;8.32;;;3.80;;
46767;SDS011;69007;48.978;18.066;2023-10-31T08:53:06;10.02;;;4.78;;
46767;SDS011;69007;48.978;18.066;2023-10-31T08:55:31;6.93;;;4.15;;
46767;SDS011;69007;48.978;18.066;2023-10-31T08:57:56;7.00;;;4.35;;
46767;SDS011;69007;48.978;18.066;2023-10-31T09:00:22;8.23;;;3.78;;
46767;SDS011;69007;48.978;18.066;2023-10-31T09:02:48;4.50;;;3.38;;
46767;SDS011;69007;48.978;18.066;2023-10-31T09:05:13;5.07;;;3.63;;
46767;SDS011;69007;48.978;18.066;2023-10-31T09:07:39;6.80;;;3.88;;
46767;SDS011;69007;48.978;18.066;2023-10-31T09:10:04;9.07;;;6.38;;
46767;SDS011;69007;48.978;18.066;2023-10-31T09:12:33;11.27;;;5.32;;
46767;SDS011;69007;48.978;18.066;2023-10-31T09:14:58;7.00;;;3.35;;
46767;SDS011;69007;48.978;18.066;2023-10-31T09:17:23;10.00;;;4.40;;
46767;SDS011;69007;48.978;18.066;2023-10-31T09:19:49;9.60;;;4.47;;
46767;SDS011;69007;48.978;18.066;2023-10-31T09:22:14;8.18;;;4.47;;
46767;SDS011;69007;48.978;18.066;2023-10-31T09:24:41;9.73;;;4.10;;
46767;SDS011;69007;48.978;18.066;2023-10-31T09:27:07;7.07;;;3.95;;
46767;SDS011;69007;48.978;18.066;2023-10-31T09:29:33;5.13;;;3.33;;
46767;SDS011;69007;48.978;18.066;2023-10-31T09:31:58;11.85;;;4.47;;
46767;SDS011;69007;48.978;18.066;2023-10-31T09:34:24;8.98;;;4.00;;
46767;SDS011;69007;48.978;18.066;2023-10-31T09:36:49;5.65;;;4.28;;
46767;SDS011;69007;48.978;18.066;2023-10-31T09:39:15;11.25;;;4.22;;
46767;SDS011;69007;48.978;18.066;2023-10-31T09:41:40;16.30;;;4.00;;
46767;SDS011;69007;48.978;18.066;2023-10-31T09:44:06;12.43;;;3.80;;
46767;SDS011;69007;48.978;18.066;2023-10-31T09:46:31;9.43;;;4.20;;
46767;SDS011;69007;48.978;18.066;2023-10-31T09:48:57;12.20;;;4.93;;
46767;SDS011;69007;48.978;18.066;2023-10-31T09:51:22;14.13;;;4.45;;
46767;SDS011;69007;48.978;18.066;2023-10-31T09:53:48;10.45;;;4.57;;
46767;SDS011;69007;48.978;18.066;2023-10-31T09:56:15;8.52;;;4.35;;
46767;SDS011;69007;48.978;18.066;2023-10-31T09:58:41;6.15;;;3.92;;
46767;SDS011;69007;48.978;18.066;2023-10-31T10:01:06;7.25;;;3.85;;
46767;SDS011;69007;48.978;18.066;2023-10-31T10:03:32;8.27;;;4.28;;
46767;SDS011;69007;48.978;18.066;2023-10-31T10:05:58;10.43;;;4.70;;
46767;SDS011;69007;48.978;18.066;2023-10-31T10:08:24;8.57;;;4.32;;
46767;SDS011;69007;48.978;18.066;2023-10-31T10:10:49;4.97;;;3.53;;
46767;SDS011;69007;48.978;18.066;2023-10-31T10:13:20;7.70;;;4.80;;
46767;SDS011;69007;48.978;18.066;2023-10-31T10:15:49;8.57;;;3.78;;
46767;SDS011;69007;48.978;18.066;2023-10-31T10:18:29;6.93;;;4.63;;
46767;SDS011;69007;48.978;18.066;2023-10-31T10:21:02;7.20;;;4.10;;
46767;SDS011;69007;48.978;18.066;2023-10-31T10:23:29;10.25;;;4.05;;
46767;SDS011;69007;48.978;18.066;2023-10-31T10:25:55;8.20;;;4.10;;
46767;SDS011;69007;48.978;18.066;2023-10-31T10:28:22;6.05;;;3.80;;
46767;SDS011;69007;48.978;18.066;2023-10-31T10:30:50;10.05;;;4.20;;
46767;SDS011;69007;48.978;18.066;2023-10-31T10:33:16;8.52;;;4.03;;
46767;SDS011;69007;48.978;18.066;2023-10-31T10:35:42;5.40;;;3.80;;
46767;SDS011;69007;48.978;18.066;2023-10-31T10:38:11;10.05;;;4.07;;
46767;SDS011;69007;48.978;18.066;2023-10-31T10:40:41;8.88;;;4.13;;
46767;SDS011;69007;48.978;18.066;2023-10-31T10:43:26;13.60;;;4.43;;
46767;SDS011;69007;48.978;18.066;2023-10-31T10:45:58;8.43;;;4.05;;
46767;SDS011;69007;48.978;18.066;2023-10-31T10:48:24;6.65;;;3.50;;
46767;SDS011;69007;48.978;18.066;2023-10-31T10:50:55;6.57;;;4.40;;
46767;SDS011;69007;48.978;18.066;2023-10-31T10:53:25;9.35;;;3.78;;
46767;SDS011;69007;48.978;18.066;2023-10-31T10:56:00;6.57;;;4.05;;
46767;SDS011;69007;48.978;18.066;2023-10-31T10:58:40;7.03;;;4.00;;
46767;SDS011;69007;48.978;18.066;2023-10-31T11:01:16;10.05;;;4.15;;
46767;SDS011;69007;48.978;18.066;2023-10-31T11:03:43;6.90;;;3.72;;
46767;SDS011;69007;48.978;18.066;2023-10-31T11:06:10;6.15;;;3.67;;
46767;SDS011;69007;48.978;18.066;2023-10-31T11:08:36;6.38;;;4.10;;
46767;SDS011;69007;48.978;18.066;2023-10-31T11:11:02;4.38;;;3.15;;
46767;SDS011;69007;48.978;18.066;2023-10-31T11:13:28;6.60;;;4.30;;
46767;SDS011;69007;48.978;18.066;2023-10-31T11:15:56;10.38;;;4.35;;
46767;SDS011;69007;48.978;18.066;2023-10-31T11:18:25;6.95;;;3.50;;
46767;SDS011;69007;48.978;18.066;2023-10-31T11:20:51;6.28;;;4.25;;
46767;SDS011;69007;48.978;18.066;2023-10-31T11:23:16;9.05;;;3.75;;
46767;SDS011;69007;48.978;18.066;2023-10-31T11:25:42;7.15;;;3.92;;
46767;SDS011;69007;48.978;18.066;2023-10-31T11:28:12;5.15;;;3.60;;
46767;SDS011;69007;48.978;18.066;2023-10-31T11:30:39;7.07;;;4.03;;
46767;SDS011;69007;48.978;18.066;2023-10-31T11:33:06;7.22;;;3.60;;
46767;SDS011;69007;48.978;18.066;2023-10-31T11:35:38;7.53;;;3.80;;
46767;SDS011;69007;48.978;18.066;2023-10-31T11:38:05;4.68;;;3.42;;
46767;SDS011;69007;48.978;18.066;2023-10-31T11:40:36;7.60;;;4.68;;
46767;SDS011;69007;48.978;18.066;2023-10-31T11:43:03;7.22;;;4.13;;
46767;SDS011;69007;48.978;18.066;2023-10-31T11:48:02;5.45;;;4.10;;
46767;SDS011;69007;48.978;18.066;2023-10-31T11:50:33;6.50;;;4.30;;
46767;SDS011;69007;48.978;18.066;2023-10-31T11:55:29;8.48;;;4.95;;
46767;SDS011;69007;48.978;18.066;2023-10-31T11:57:58;9.65;;;4.53;;
46767;SDS011;69007;48.978;18.066;2023-10-31T12:00:36;17.40;;;4.82;;
46767;SDS011;69007;48.978;18.066;2023-10-31T12:03:01;10.82;;;3.60;;
46767;SDS011;69007;48.978;18.066;2023-10-31T12:05:27;8.20;;;3.92;;
46767;SDS011;69007;48.978;18.066;2023-10-31T12:07:53;9.05;;;3.72;;
46767;SDS011;69007;48.978;18.066;2023-10-31T12:10:23;9.13;;;4.53;;
46767;SDS011;69007;48.978;18.066;2023-10-31T12:12:50;10.50;;;4.47;;
46767;SDS011;69007;48.978;18.066;2023-10-31T12:15:16;12.77;;;5.55;;
46767;SDS011;69007;48.978;18.066;2023-10-31T12:17:41;8.43;;;6.10;;
46767;SDS011;69007;48.978;18.066;2023-10-31T12:20:07;9.93;;;5.30;;
46767;SDS011;69007;48.978;18.066;2023-10-31T12:22:34;7.72;;;4.90;;
46767;SDS011;69007;48.978;18.066;2023-10-31T12:25:01;6.30;;;4.35;;
46767;SDS011;69007;48.978;18.066;2023-10-31T12:27:46;7.63;;;4.70;;
46767;SDS011;69007;48.978;18.066;2023-10-31T12:30:15;8.57;;;4.60;;
46767;SDS011;69007;48.978;18.066;2023-10-31T12:32:41;12.13;;;5.13;;
46767;SDS011;69007;48.978;18.066;2023-10-31T12:35:11;6.60;;;4.50;;
46767;SDS011;69007;48.978;18.066;2023-10-31T12:37:50;12.63;;;4.13;;
46767;SDS011;69007;48.978;18.066;2023-10-31T12:40:17;7.22;;;3.85;;
46767;SDS011;69007;48.978;18.066;2023-10-31T12:42:44;8.15;;;4.90;;
46767;SDS011;69007;48.978;18.066;2023-10-31T12:45:11;10.70;;;5.10;;
46767;SDS011;69007;48.978;18.066;2023-10-31T12:47:37;8.20;;;4.75;;
46767;SDS011;69007;48.978;18.066;2023-10-31T12:50:06;11.90;;;4.60;;
46767;SDS011;69007;48.978;18.066;2023-10-31T12:55:16;4.80;;;4.25;;
46767;SDS011;69007;48.978;18.066;2023-10-31T12:57:43;8.77;;;3.85;;
46767;SDS011;69007;48.978;18.066;2023-10-31T13:00:10;5.05;;;3.53;;
46767;SDS011;69007;48.978;18.066;2023-10-31T13:02:38;4.47;;;3.60;;
46767;SDS011;69007;48.978;18.066;2023-10-31T13:05:08;6.05;;;4.22;;
46767;SDS011;69007;48.978;18.066;2023-10-31T13:07:34;8.45;;;4.55;;
46767;SDS011;69007;48.978;18.066;2023-10-31T13:10:00;5.72;;;4.25;;
46767;SDS011;69007;48.978;18.066;2023-10-31T13:12:25;6.72;;;5.00;;
46767;SDS011;69007;48.978;18.066;2023-10-31T13:14:53;6.22;;;4.05;;
46767;SDS011;69007;48.978;18.066;2023-10-31T13:17:18;3.08;;;2.50;;
46767;SDS011;69007;48.978;18.066;2023-10-31T13:19:43;2.47;;;1.90;;
46767;SDS011;69007;48.978;18.066;2023-10-31T13:22:09;1.60;;;1.08;;
46767;SDS011;69007;48.978;18.066;2023-10-31T13:24:34;1.35;;;1.25;;
46767;SDS011;69007;48.978;18.066;2023-10-31T13:27:00;0.77;;;0.77;;
46767;SDS011;69007;48.978;18.066;2023-10-31T13:29:27;0.65;;;0.65;;
46767;SDS011;69007;48.978;18.066;2023-10-31T13:31:53;0.98;;;0.70;;
46767;SDS011;69007;48.978;18.066;2023-10-31T13:34:18;0.70;;;0.70;;
46767;SDS011;69007;48.978;18.066;2023-10-31T13:36:44;0.50;;;0.40;;
46767;SDS011;69007;48.978;18.066;2023-10-31T13:39:09;0.57;;;0.57;;
46767;SDS011;69007;48.978;18.066;2023-10-31T13:41:35;0.63;;;0.45;;
46767;SDS011;69007;48.978;18.066;2023-10-31T13:44:00;0.47;;;0.40;;
46767;SDS011;69007;48.978;18.066;2023-10-31T13:46:28;0.60;;;0.60;;
46767;SDS011;69007;48.978;18.066;2023-10-31T13:48:54;1.25;;;0.30;;
46767;SDS011;69007;48.978;18.066;2023-10-31T13:51:19;0.40;;;0.40;;
46767;SDS011;69007;48.978;18.066;2023-10-31T13:53:45;1.85;;;0.73;;
46767;SDS011;69007;48.978;18.066;2023-10-31T13:56:10;0.93;;;0.57;;
46767;SDS011;69007;48.978;18.066;2023-10-31T13:58:36;4.30;;;0.60;;
46767;SDS011;69007;48.978;18.066;2023-10-31T14:01:01;2.67;;;0.60;;
46767;SDS011;69007;48.978;18.066;2023-10-31T14:03:27;0.73;;;0.73;;
46767;SDS011;69007;48.978;18.066;2023-10-31T14:05:52;0.55;;;0.55;;
46767;SDS011;69007;48.978;18.066;2023-10-31T14:08:18;2.85;;;1.05;;
46767;SDS011;69007;48.978;18.066;2023-10-31T14:10:44;1.75;;;0.68;;
46767;SDS011;69007;48.978;18.066;2023-10-31T14:13:11;0.75;;;0.60;;
46767;SDS011;69007;48.978;18.066;2023-10-31T14:15:37;1.23;;;0.57;;
46767;SDS011;69007;48.978;18.066;2023-10-31T14:18:03;0.70;;;0.70;;
46767;SDS011;69007;48.978;18.066;2023-10-31T14:20:28;0.60;;;0.50;;
46767;SDS011;69007;48.978;18.066;2023-10-31T14:22:54;1.05;;;0.80;;
46767;SDS011;69007;48.978;18.066;2023-10-31T14:25:19;0.77;;;0.77;;
46767;SDS011;69007;48.978;18.066;2023-10-31T14:27:45;0.90;;;0.65;;
46767;SDS011;69007;48.978;18.066;2023-10-31T14:30:11;0.60;;;0.60;;
46767;SDS011;69007;48.978;18.066;2023-10-31T14:32:37;0.60;;;0.60;;
46767;SDS011;69007;48.978;18.066;2023-10-31T14:35:03;1.17;;;0.82;;